• Join FlightAware (Why Join?)
  • Login
  • US Flag 
02:20PM EDT


 

Airport Tracker/Info


-or-


 

Live Flight TrackerFlight Track Log ✈ UAL3740 ✈ 16-Apr-2013 ✈ KPVD - KIAD

Flight Track Log - Related Links

Times and Time Zones

All times are in EDT time to prevent confusion due to time zone crossing. See the UAL3740 flight status page for this flight to view local times or setup timezone preferences in your user account.

Time Position Orientation Groundspeed Altitude Reporting Facility
EDT Latitude Longitude Course Direction KTS MPH feet Rate Location/Type
10:20AM 41.6961 -71.4725 244° Southwest 179 206 1,900  Level Boston Center
10:21AM 41.6964 -71.5142 271° West 200 230 4,000 2,220 Climbing Boston Center
10:22AM 41.6992 -71.5919 273° West 258 297 5,900 1,980 Climbing Boston Center
10:23AM 41.7869 -71.6272 343° North 272 313 8,100 1,080 Climbing Boston Center
10:24AM 41.8661 -71.6511 347° North 284 327 8,100 600 Level Boston Center
10:25AM 41.9250 -71.6978 329° Northwest 281 323 9,300 1,920 Climbing Boston Center
10:26AM 41.9506 -71.8092 287° West 254 292 11,900 2,280 Climbing Boston Center
10:27AM 41.9697 -71.9039 285° West 277 319 13,900 2,400 Climbing Boston Center
10:28AM 41.9994 -72.0267 288° West 306 352 16,800 1,920 Climbing Boston Center
10:29AM 42.0269 -72.1411 288° West 321 369 17,800 1,260 Climbing Boston Center
10:30AM 42.0542 -72.2556 288° West 337 388 19,400 1,800 Climbing Boston Center
10:31AM 42.0772 -72.3814 284° West 342 394 21,400 1,740 Climbing Boston Center
10:32AM 42.0564 -72.5100 258° West 347 399 22,900 1,500 Climbing Boston Center
10:33AM 42.0333 -72.6414 257° West 352 405 24,500 1,500 Climbing Boston Center
10:34AM 42.0103 -72.7753 257° West 358 412 26,000 1,500 Climbing Boston Center
10:35AM 41.9847 -72.9150 256° West 377 434 27,500 1,320 Climbing Boston Center
10:36AM 41.9547 -73.0597 254° West 385 443 28,600 1,080 Climbing Boston Center
10:37AM 41.8853 -73.1819 233° Southwest 396 456 29,700 1,140 Climbing Boston Center
10:38AM 41.8136 -73.2897 228° Southwest 403 464 31,000 720 Climbing Boston Center
10:40AM 41.6350 -73.5439 227° Southwest 408 470 32,000 300 Climbing New York Center
10:41AM 41.5658 -73.6519 229° Southwest 422 486 32,000  Level New York Center
10:42AM 41.4817 -73.7703 227° Southwest 435 501 32,000  Level New York Center
10:43AM 41.3994 -73.8936 228° Southwest 447 514 32,000  Level New York Center
10:44AM 41.3150 -74.0139 227° Southwest 447 514 32,000 -60 Level New York Center
10:45AM 41.2325 -74.1342 228° Southwest 452 520 31,900  Descending New York Center
10:46AM 41.1350 -74.2642 225° Southwest 452 520 32,000  Climbing New York Center
10:47AM 41.0500 -74.3864 227° Southwest 457 526 31,900 -1,140 Descending New York Center
10:48AM 40.9653 -74.5028 226° Southwest 457 526 29,800 -1,980 Descending New York Center
10:49AM 40.8947 -74.6197 231° Southwest 437 503 28,000 -960 Descending New York Center
10:50AM 40.8594 -74.7383 249° West 382 440 28,000 -480 Level New York Center
10:51AM 40.8244 -74.8514 248° West 358 412 27,100 -1,200 Descending New York Center
10:52AM 40.7892 -74.9644 248° West 346 398 25,600 -1,080 Descending New York Center
10:53AM 40.7539 -75.0775 248° West 346 398 25,000 -360 Descending New York Center
10:54AM 40.7206 -75.1903 249° West 341 392 25,000  Level New York Center
10:55AM 40.6850 -75.3031 247° West 341 392 25,000 -360 Level New York Center
10:56AM 40.6428 -75.4233 245° Southwest 352 405 24,300 -1,140 Descending New York Center
10:57AM 40.5861 -75.5425 238° Southwest 366 421 22,700 -1,560 Descending New York Center
10:58AM 40.5192 -75.6469 230° Southwest 380 437 21,300 -1,380 Descending New York Center
10:59AM 40.4544 -75.7489 230° Southwest 380 437 20,000 -660 Descending New York Center
11:00AM 40.3939 -75.8506 232° Southwest 374 430 20,000  Level New York Center
11:01AM 40.3314 -75.9494 230° Southwest 384 442 20,000  Level New York Center
11:02AM 40.2683 -76.0536 232° Southwest 384 442 20,000 -660 Level New York Center
11:03AM 40.2075 -76.1522 231° Southwest 373 429 18,800 -1,320 Descending New York Center
11:04AM 40.1378 -76.2636 231° Southwest 366 421 17,400 -1,440 Descending New York Center
11:05AM 40.0850 -76.3681 237° Southwest 358 412 15,900 -720 Descending New York Center
11:07AM 39.9667 -76.6167 238° Southwest 343 395 15,000 -300 Descending Potomac TRACON
11:08AM 39.9167 -76.7167 237° Southwest 344 396 15,000  Level Potomac TRACON
11:09AM 39.8833 -76.8167 247° West 337 388 15,000 -420 Level Potomac TRACON
11:10AM 39.8333 -76.9167 237° Southwest 298 343 14,300 -780 Descending Potomac TRACON
11:11AM 39.8000 -77.0000 243° Southwest 281 323 13,500 -1,080 Descending Potomac TRACON
11:12AM 39.7500 -77.0833 232° Southwest 279 321 12,300 -1,320 Descending Potomac TRACON
11:13AM 39.7167 -77.1667 243° Southwest 278 320 11,100 -900 Descending Potomac TRACON
11:14AM 39.6833 -77.2667 247° West 302 348 10,600 -900 Descending Potomac TRACON
11:15AM 39.6333 -77.3333 226° Southwest 269 310 9,400 -1,320 Descending Potomac TRACON
11:16AM 39.6000 -77.3833 229° Southwest 251 289 8,200 -780 Descending Potomac TRACON
11:17AM 39.5500 -77.4500 226° Southwest 235 270 8,000 -120 Descending Potomac TRACON
11:18AM 39.5000 -77.4667 194° South 246 283 8,000 -120 Level Potomac TRACON
11:19AM 39.4333 -77.4500 169° South 247 284 7,800 -660 Descending Potomac TRACON
11:20AM 39.3667 -77.4500 180° South 245 282 6,700 -900 Descending Potomac TRACON
11:21AM 39.3000 -77.4500 180° South 217 250 6,000 -1,020 Descending Potomac TRACON
11:22AM 39.2500 -77.4833 207° Southwest 193 222 4,700 -1,020 Descending Potomac TRACON
11:23AM 39.2000 -77.4833 180° South 177 204 4,000 -360 Descending Potomac TRACON
11:24AM 39.1667 -77.4500 142° Southeast 173 199 4,000 -300 Level Potomac TRACON
11:25AM 39.1167 -77.4500 180° South 153 176 3,500 -840 Descending Potomac TRACON
11:26AM 39.0833 -77.4500 180° South 154 177 2,400 -960 Descending Potomac TRACON
11:27AM 39.0333 -77.4667 195° South 151 174 1,600 -780 Descending Potomac TRACON
11:28AM 39.0000 -77.4667 180° South 127 146 900 -720 Descending Potomac TRACON
11:30AM 38.9474 -77.4599 167° South  Level Estimated